Time;durP1;ratioP1;P1;durP2;ratioP2;P2;SDS_P1;SDS_P2;PMS_P1;PMS_P2;Temp;Humidity;BMP_temperature;BMP_pressure;BME280_temperature;BME280_humidity;BME280_pressure;Samples;Min_cycle;Max_cycle;Signal;HPM_P1;HPM_P2
2021/10/26 00:01:30;;;;;;;8.83;6.65;;;;;;;16.54;40.29;101210.16;1794311;77;21047;-65
2021/10/26 00:03:57;;;;;;;8.70;6.65;;;;;;;16.51;40.27;101212.17;1781883;78;21048;-67
2021/10/26 00:06:23;;;;;;;7.85;6.15;;;;;;;16.50;40.30;101204.29;1812491;79;21000;-65
2021/10/26 00:08:49;;;;;;;9.10;6.70;;;;;;;16.49;40.21;101200.75;1781154;79;21052;-67
2021/10/26 00:11:16;;;;;;;8.33;6.72;;;;;;;16.47;40.16;101185.84;1825378;77;21084;-65
2021/10/26 00:13:43;;;;;;;8.35;6.62;;;;;;;16.46;40.27;101192.23;1772580;79;21025;-65
2021/10/26 00:16:12;;;;;;;10.15;7.10;;;;;;;16.45;40.20;101194.56;1834182;77;21036;-65
2021/10/26 00:18:39;;;;;;;8.95;7.83;;;;;;;16.42;40.26;101190.91;1826270;77;21059;-66
2021/10/26 00:21:05;;;;;;;9.83;6.58;;;;;;;16.41;40.16;101184.68;1819219;77;21008;-65
2021/10/26 00:23:32;;;;;;;8.68;6.30;;;;;;;16.39;40.21;101177.31;1811468;79;21080;-66
2021/10/26 00:25:58;;;;;;;7.25;6.20;;;;;;;16.39;40.21;101177.83;1818675;77;22298;-65
2021/10/26 00:28:25;;;;;;;7.90;6.50;;;;;;;16.38;40.16;101184.19;1807966;77;21445;-66
2021/10/26 00:30:51;;;;;;;8.95;6.78;;;;;;;16.37;40.25;101181.19;1810042;77;22053;-66
2021/10/26 00:33:17;;;;;;;9.08;7.30;;;;;;;16.35;40.18;101177.33;1797010;77;21099;-65
2021/10/26 00:35:44;;;;;;;8.28;6.70;;;;;;;16.34;40.12;101166.77;1796672;77;21017;-67
2021/10/26 00:38:10;;;;;;;10.78;6.83;;;;;;;16.33;40.25;101175.83;1808579;77;23312;-68
2021/10/26 00:40:38;;;;;;;8.63;6.90;;;;;;;16.31;40.22;101166.61;1808007;77;21490;-65
2021/10/26 00:43:05;;;;;;;8.88;6.78;;;;;;;16.29;40.15;101163.27;1808649;77;21090;-65
2021/10/26 00:45:31;;;;;;;10.70;6.67;;;;;;;16.28;40.21;101161.58;1812390;77;21013;-66
2021/10/26 00:47:58;;;;;;;9.08;6.72;;;;;;;16.25;40.25;101163.28;1809341;77;21086;-66
2021/10/26 00:50:25;;;;;;;10.70;6.67;;;;;;;16.25;40.21;101160.59;1814144;77;21099;-65
2021/10/26 00:52:52;;;;;;;7.20;6.12;;;;;;;16.24;40.15;101161.59;1834963;77;21033;-67
2021/10/26 00:55:18;;;;;;;8.68;5.90;;;;;;;16.22;40.15;101161.75;1787031;77;21045;-65
2021/10/26 00:57:45;;;;;;;6.87;6.05;;;;;;;16.21;40.13;101157.42;1814077;77;21008;-67
2021/10/26 01:00:14;;;;;;;8.80;6.67;;;;;;;16.20;40.16;101154.90;1787495;77;21056;-66
2021/10/26 01:02:45;;;;;;;9.85;6.78;;;;;;;16.19;40.15;101150.56;1793502;77;21110;-67
2021/10/26 01:05:14;;;;;;;9.20;6.65;;;;;;;16.18;40.18;101156.92;1790473;78;21099;-66
2021/10/26 01:07:41;;;;;;;10.18;7.20;;;;;;;16.15;40.20;101152.73;1779656;78;20984;-66
2021/10/26 01:10:09;;;;;;;9.20;6.67;;;;;;;16.13;40.21;101152.08;1776645;78;21058;-66
2021/10/26 01:12:36;;;;;;;8.58;6.33;;;;;;;16.11;40.21;101150.07;1777989;78;21068;-65
2021/10/26 01:15:06;;;;;;;10.13;7.12;;;;;;;16.10;40.19;101149.21;1805063;77;21089;-65
2021/10/26 01:17:33;;;;;;;9.25;6.97;;;;;;;16.09;40.24;101144.88;1808887;77;21336;-66
2021/10/26 01:20:00;;;;;;;8.68;6.97;;;;;;;16.07;40.19;101146.89;1779871;78;21032;-65
2021/10/26 01:22:28;;;;;;;8.50;7.05;;;;;;;16.06;40.26;101145.20;1791949;79;21527;-65
2021/10/26 01:25:00;;;;;;;8.73;6.47;;;;;;;16.05;40.29;101146.70;1825379;77;20985;-65
2021/10/26 01:27:23;;;;;;;8.98;6.17;;;;;;;16.04;40.20;101152.58;1817522;77;21218;-66
2021/10/26 01:29:52;;;;;;;8.63;7.25;;;;;;;16.03;40.23;101144.70;1798329;77;21593;-66
2021/10/26 01:32:21;;;;;;;9.50;6.90;;;;;;;16.01;40.19;101144.03;1783224;78;21040;-65
2021/10/26 01:34:49;;;;;;;8.88;7.37;;;;;;;16.01;40.25;101146.71;1806271;77;21009;-66
2021/10/26 01:37:17;;;;;;;8.80;7.08;;;;;;;16.00;40.18;101143.72;1805151;77;21000;-67
2021/10/26 01:39:44;;;;;;;8.13;6.45;;;;;;;15.98;40.16;101136.34;1807772;77;21139;-66
2021/10/26 01:42:11;;;;;;;8.38;6.87;;;;;;;15.97;40.12;101135.48;1815544;77;20997;-67
2021/10/26 01:44:39;;;;;;;10.32;7.62;;;;;;;15.96;40.09;101132.49;1836991;77;21051;-65
2021/10/26 01:47:08;;;;;;;9.08;7.12;;;;;;;15.95;40.16;101125.95;1841035;77;21032;-65
2021/10/26 01:49:35;;;;;;;8.48;6.15;;;;;;;15.93;40.18;101136.84;1814955;77;21064;-66
2021/10/26 01:52:03;;;;;;;7.67;5.78;;;;;;;15.91;40.17;101132.98;1810599;77;21111;-66
2021/10/26 01:54:36;;;;;;;8.40;6.85;;;;;;;15.90;40.13;101131.33;1809901;77;21036;-67
2021/10/26 01:56:57;;;;;;;8.23;6.80;;;;;;;15.90;40.18;101133.17;1790339;77;21076;-66
2021/10/26 01:59:26;;;;;;;9.75;6.92;;;;;;;15.89;40.20;101132.83;1817029;77;21001;-66
2021/10/26 02:01:52;;;;;;;8.70;6.95;;;;;;;15.87;40.12;101134.33;1806144;77;21039;-66
2021/10/26 02:04:23;;;;;;;9.05;6.97;;;;;;;15.86;40.16;101129.16;1766759;79;21728;-66
2021/10/26 02:06:50;;;;;;;10.03;7.47;;;;;;;15.85;40.17;101131.49;1810587;77;21471;-65
2021/10/26 02:09:16;;;;;;;10.15;7.17;;;;;;;15.84;40.06;101130.66;1810738;77;21020;-66
2021/10/26 02:11:42;;;;;;;8.45;6.42;;;;;;;15.81;40.08;101132.84;1803402;77;21016;-65
2021/10/26 02:14:09;;;;;;;9.43;7.10;;;;;;;15.80;40.14;101132.02;1797678;77;21016;-66
2021/10/26 02:16:36;;;;;;;9.25;7.30;;;;;;;15.80;40.08;101134.69;1781144;78;21323;-65
2021/10/26 02:19:03;;;;;;;9.10;7.05;;;;;;;15.79;40.12;101128.16;1771531;77;20998;-66
2021/10/26 02:21:30;;;;;;;8.90;6.87;;;;;;;15.77;40.06;101124.30;1803788;77;21169;-65
2021/10/26 02:23:56;;;;;;;7.95;6.45;;;;;;;15.77;40.22;101117.59;1792937;79;21001;-66
2021/10/26 02:26:23;;;;;;;8.38;6.75;;;;;;;15.76;40.13;101119.10;1777093;78;21040;-66
2021/10/26 02:28:49;;;;;;;9.55;7.92;;;;;;;15.73;40.15;101113.08;1791926;77;22323;-65
2021/10/26 02:31:15;;;;;;;9.95;7.03;;;;;;;15.73;40.15;101109.56;1826861;77;21052;-66
2021/10/26 02:33:42;;;;;;;9.03;7.03;;;;;;;15.72;40.18;101108.70;1780940;78;21009;-65
2021/10/26 02:36:09;;;;;;;8.40;6.90;;;;;;;15.71;40.18;101110.20;1792246;77;21037;-65
2021/10/26 02:38:35;;;;;;;8.93;7.20;;;;;;;15.70;40.12;101108.52;1806856;77;21060;-65
2021/10/26 02:41:02;;;;;;;8.48;7.10;;;;;;;15.69;40.11;101106.86;1810035;79;21132;-66
2021/10/26 02:43:30;;;;;;;8.48;7.53;;;;;;;15.69;40.12;101093.47;1812338;77;21020;-65
2021/10/26 02:45:58;;;;;;;10.25;8.00;;;;;;;15.67;40.18;101103.52;1813359;77;21046;-66
2021/10/26 02:48:25;;;;;;;9.50;7.53;;;;;;;15.65;40.17;101102.34;1811647;77;21064;-65
2021/10/26 02:50:53;;;;;;;9.70;7.65;;;;;;;15.65;40.14;101100.17;1811854;77;21008;-67
2021/10/26 02:53:19;;;;;;;11.03;7.12;;;;;;;15.63;40.04;101092.30;1808057;77;21196;-65
2021/10/26 02:55:45;;;;;;;8.25;7.25;;;;;;;15.63;40.09;101097.66;1771874;78;21022;-66
2021/10/26 02:58:12;;;;;;;9.08;7.03;;;;;;;15.62;40.07;101093.28;1812307;79;21064;-65
2021/10/26 03:00:39;;;;;;;9.33;7.08;;;;;;;15.62;40.15;101091.12;1812115;77;21044;-65
2021/10/26 03:03:07;;;;;;;10.38;7.40;;;;;;;15.60;40.20;101095.30;1809746;77;21473;-66
2021/10/26 03:05:34;;;;;;;9.88;7.15;;;;;;;15.59;40.11;101104.36;1814470;77;21127;-65
2021/10/26 03:08:01;;;;;;;8.95;7.50;;;;;;;15.58;40.12;101089.28;1806019;77;21012;-65
2021/10/26 03:10:27;;;;;;;8.45;6.65;;;;;;;15.56;40.04;101092.62;1812165;77;21012;-65
2021/10/26 03:12:53;;;;;;;8.48;7.20;;;;;;;15.56;40.07;101089.12;1807760;77;21084;-66
2021/10/26 03:15:21;;;;;;;8.43;6.78;;;;;;;15.53;40.07;101092.47;1811707;77;21028;-66
2021/10/26 03:17:47;;;;;;;9.88;6.97;;;;;;;15.52;40.11;101084.09;1807428;77;21742;-65
2021/10/26 03:20:20;;;;;;;10.40;7.62;;;;;;;15.51;40.12;101074.88;1810149;77;21064;-65
2021/10/26 03:22:46;;;;;;;10.65;7.55;;;;;;;15.49;40.08;101077.75;1809366;77;21048;-65
2021/10/26 03:25:12;;;;;;;9.48;7.28;;;;;;;15.49;40.03;101079.56;1803839;77;21460;-66
2021/10/26 03:27:39;;;;;;;8.18;6.70;;;;;;;15.47;40.07;101079.75;1811634;77;21544;-67
2021/10/26 03:30:09;;;;;;;9.68;7.10;;;;;;;15.47;40.12;101077.08;1802264;77;21216;-66
2021/10/26 03:32:37;;;;;;;8.90;6.95;;;;;;;15.45;40.09;101073.73;1808937;77;21048;-65
2021/10/26 03:35:22;;;;;;;9.40;7.08;;;;;;;15.45;40.13;101076.41;1823210;77;21027;-65
2021/10/26 03:37:48;;;;;;;9.58;6.85;;;;;;;15.41;40.05;101076.38;1797318;77;21020;-67
2021/10/26 03:40:15;;;;;;;11.65;7.35;;;;;;;15.41;40.10;101072.88;1811000;77;20969;-66
2021/10/26 03:42:42;;;;;;;8.10;6.85;;;;;;;15.39;40.08;101069.02;1802828;77;21100;-66
2021/10/26 03:45:09;;;;;;;11.60;7.40;;;;;;;15.38;40.10;101066.02;1811487;79;21643;-66
2021/10/26 03:47:41;;;;;;;9.85;7.55;;;;;;;15.38;40.10;101066.53;1806931;77;21481;-65
2021/10/26 03:50:09;;;;;;;8.93;7.17;;;;;;;15.36;40.10;101061.84;1807102;79;21026;-66
2021/10/26 03:52:37;;;;;;;10.00;7.17;;;;;;;15.34;40.12;101074.06;1804179;79;21527;-66
2021/10/26 03:55:05;;;;;;;11.25;7.62;;;;;;;15.34;40.10;101068.20;1809508;79;22315;-66
2021/10/26 03:57:32;;;;;;;9.23;7.40;;;;;;;15.32;40.15;101066.19;1812347;77;21560;-66
2021/10/26 04:00:00;;;;;;;8.68;6.25;;;;;;;15.30;40.13;101064.18;1816135;77;21057;-65
2021/10/26 04:02:30;;;;;;;11.30;7.45;;;;;;;15.30;40.10;101065.52;1805288;77;21060;-65
2021/10/26 04:05:04;;;;;;;11.03;7.67;;;;;;;15.30;40.11;101070.87;1804612;77;21076;-66
2021/10/26 04:07:30;;;;;;;8.60;6.25;;;;;;;15.29;40.23;101065.68;1804531;77;22109;-66
2021/10/26 04:10:06;;;;;;;8.83;7.03;;;;;;;15.28;40.24;101066.70;1793897;77;21454;-66
2021/10/26 04:12:33;;;;;;;9.73;7.47;;;;;;;15.26;40.15;101064.66;1820608;77;20997;-65
2021/10/26 04:15:01;;;;;;;9.20;6.90;;;;;;;15.25;40.16;101065.68;1797714;77;21008;-65
2021/10/26 04:17:28;;;;;;;8.20;6.53;;;;;;;15.24;40.17;101059.98;1813518;77;21450;-65
2021/10/26 04:19:57;;;;;;;11.18;7.12;;;;;;;15.22;40.12;101059.31;1793730;77;21127;-65
2021/10/26 04:22:24;;;;;;;9.10;7.42;;;;;;;15.21;40.16;101061.67;1797864;77;20989;-66
2021/10/26 04:24:51;;;;;;;9.23;7.20;;;;;;;15.21;40.18;101060.33;1791495;77;21540;-66
2021/10/26 04:27:18;;;;;;;9.75;7.30;;;;;;;15.19;40.15;101064.50;1793792;77;21555;-67
2021/10/26 04:29:45;;;;;;;8.53;6.95;;;;;;;15.19;40.25;101062.34;1809169;77;21009;-67
2021/10/26 04:32:14;;;;;;;9.73;7.53;;;;;;;15.18;40.23;101066.00;1812277;77;21095;-65
2021/10/26 04:34:41;;;;;;;8.80;6.90;;;;;;;15.16;40.19;101064.82;1826482;77;21512;-66
2021/10/26 04:37:09;;;;;;;8.18;7.05;;;;;;;15.16;40.15;101057.30;1810424;77;21072;-67
2021/10/26 04:39:37;;;;;;;8.70;6.85;;;;;;;15.14;40.13;101063.67;1809260;77;21087;-66
2021/10/26 04:42:10;;;;;;;8.98;7.25;;;;;;;15.13;40.12;101059.31;1786774;78;21021;-67
2021/10/26 04:44:36;;;;;;;9.70;7.10;;;;;;;15.11;40.16;101061.31;1776481;78;21106;-66
2021/10/26 04:47:03;;;;;;;9.15;7.08;;;;;;;15.10;40.17;101054.30;1813592;77;20981;-67
2021/10/26 04:49:29;;;;;;;8.95;6.92;;;;;;;15.11;40.20;101065.84;1812388;77;21012;-67
2021/10/26 04:51:56;;;;;;;9.28;6.87;;;;;;;15.09;40.25;101068.67;1807195;77;21025;-67
2021/10/26 04:54:23;;;;;;;9.25;7.33;;;;;;;15.09;40.31;101074.03;1794355;77;21071;-67
2021/10/26 04:56:51;;;;;;;8.60;6.72;;;;;;;15.08;40.22;101069.66;1810528;77;21081;-66
2021/10/26 04:59:31;;;;;;;9.43;7.67;;;;;;;15.08;40.15;101067.50;1759380;79;21287;-66
2021/10/26 05:01:58;;;;;;;8.90;7.28;;;;;;;15.07;40.29;101073.87;1802996;77;21575;-65
2021/10/26 05:04:24;;;;;;;8.53;6.83;;;;;;;15.07;40.19;101072.53;1809343;77;21517;-66
2021/10/26 05:06:52;;;;;;;9.03;7.33;;;;;;;15.05;40.21;101073.20;1805685;77;21678;-66
2021/10/26 05:09:19;;;;;;;10.38;7.70;;;;;;;15.05;40.21;101072.69;1807673;77;22272;-67
2021/10/26 05:11:45;;;;;;;10.08;7.40;;;;;;;15.06;40.24;101077.02;1809828;79;21055;-66
2021/10/26 05:14:12;;;;;;;8.08;7.17;;;;;;;15.05;40.20;101076.70;1809790;77;21076;-65
2021/10/26 05:16:49;;;;;;;8.45;7.22;;;;;;;15.04;40.19;101079.03;1701712;82;21639;-66
2021/10/26 05:19:36;;;;;;;10.58;7.30;;;;;;;15.04;40.23;101068.83;1806063;77;20978;-66
2021/10/26 05:22:24;;;;;;;10.08;7.58;;;;;;;15.03;40.21;101076.03;1814619;77;22077;-66
2021/10/26 05:25:08;;;;;;;8.28;6.90;;;;;;;15.02;40.25;101074.34;1795218;77;21044;-65
2021/10/26 05:27:39;;;;;;;9.48;7.58;;;;;;;15.01;40.19;101071.83;1801734;79;20995;-65
2021/10/26 05:30:06;;;;;;;10.82;7.28;;;;;;;15.01;40.20;101078.03;1812285;77;21017;-66
2021/10/26 05:32:34;;;;;;;9.53;7.55;;;;;;;15.01;40.11;101073.16;1825508;77;21610;-66
2021/10/26 05:35:01;;;;;;;8.30;6.65;;;;;;;15.00;40.19;101081.70;1807702;77;21759;-64
2021/10/26 05:37:27;;;;;;;9.58;7.33;;;;;;;15.01;40.19;101078.52;1809177;78;22043;-65
2021/10/26 05:39:54;;;;;;;10.80;8.05;;;;;;;15.01;40.19;101074.02;1805606;79;21063;-66
2021/10/26 05:42:20;;;;;;;10.08;7.60;;;;;;;15.01;40.23;101081.19;1812702;77;21016;-65
2021/10/26 05:44:47;;;;;;;9.28;6.83;;;;;;;15.03;40.14;101084.06;1821097;77;21044;-66
2021/10/26 05:47:13;;;;;;;9.48;6.87;;;;;;;15.03;40.14;101080.05;1817130;77;21107;-66
2021/10/26 05:49:39;;;;;;;9.35;7.33;;;;;;;15.04;40.16;101081.70;1805103;77;20965;-68
2021/10/26 05:52:06;;;;;;;12.07;7.60;;;;;;;15.05;40.12;101090.59;1807017;77;21560;-67
2021/10/26 05:54:32;;;;;;;8.60;7.00;;;;;;;15.06;40.18;101086.90;1810737;77;21034;-66
2021/10/26 05:56:58;;;;;;;9.40;7.05;;;;;;;15.06;40.10;101087.73;1810897;78;20985;-66
2021/10/26 05:59:25;;;;;;;9.55;7.20;;;;;;;15.08;40.12;101095.59;1819956;77;21053;-67
2021/10/26 06:01:51;;;;;;;8.83;7.58;;;;;;;15.09;40.09;101085.25;1819158;77;21094;-67
2021/10/26 06:04:19;;;;;;;9.68;7.35;;;;;;;15.09;40.07;101098.63;1815152;79;20993;-67
2021/10/26 06:06:46;;;;;;;8.40;7.20;;;;;;;15.09;40.08;101095.44;1816097;77;21044;-67
2021/10/26 06:09:15;;;;;;;10.72;7.85;;;;;;;15.11;40.16;101088.08;1799052;79;21012;-66
2021/10/26 06:11:45;;;;;;;9.33;7.45;;;;;;;15.11;40.09;101093.44;1801163;77;21136;-65
2021/10/26 06:14:11;;;;;;;9.30;7.50;;;;;;;15.04;40.00;101068.83;1770711;79;21045;-66
2021/10/26 06:16:39;;;;;;;9.70;7.00;;;;;;;15.13;40.08;101092.77;1811000;79;21060;-64
2021/10/26 06:19:06;;;;;;;9.10;6.97;;;;;;;15.14;40.13;101094.45;1798825;77;21017;-65
2021/10/26 06:21:33;;;;;;;9.55;7.62;;;;;;;15.15;40.15;101097.96;1805042;77;21109;-66
2021/10/26 06:24:01;;;;;;;7.83;6.33;;;;;;;15.16;40.22;101096.11;1802333;77;21120;-65
2021/10/26 06:26:28;;;;;;;8.03;7.10;;;;;;;15.18;40.13;101094.94;1795346;77;21041;-66
2021/10/26 06:28:59;;;;;;;9.13;6.95;;;;;;;15.19;40.13;101094.45;1810372;77;21076;-67
2021/10/26 06:31:27;;;;;;;7.53;6.70;;;;;;;15.20;40.13;101097.45;1819187;77;21034;-67
2021/10/26 06:33:55;;;;;;;8.45;6.85;;;;;;;15.20;40.11;101100.12;1804867;77;21115;-66
2021/10/26 06:36:23;;;;;;;8.53;6.90;;;;;;;15.21;40.14;101095.95;1809035;77;21086;-65
2021/10/26 06:38:51;;;;;;;11.15;7.55;;;;;;;15.23;40.03;101095.80;1809991;77;21117;-66
2021/10/26 06:41:19;;;;;;;8.95;6.78;;;;;;;15.24;40.07;101106.83;1808022;77;20985;-65
2021/10/26 06:43:55;;;;;;;10.43;7.78;;;;;;;15.25;40.03;101101.82;1813278;77;20994;-66
2021/10/26 06:46:41;;;;;;;10.78;8.13;;;;;;;15.26;40.00;101082.92;1808317;77;21013;-66
2021/10/26 06:49:27;;;;;;;9.28;6.75;;;;;;;15.26;39.96;101084.73;1788213;77;21284;-66
2021/10/26 06:52:13;;;;;;;11.38;7.40;;;;;;;15.27;39.96;101093.12;1813255;77;21026;-67
2021/10/26 06:54:51;;;;;;;9.53;7.03;;;;;;;15.27;39.93;101093.12;1784534;78;21044;-68
2021/10/26 06:57:21;;;;;;;10.58;7.30;;;;;;;15.29;39.93;101084.42;1812235;77;21027;-67
2021/10/26 07:00:08;;;;;;;9.55;7.10;;;;;;;15.29;39.90;101086.59;1804986;77;21103;-67
2021/10/26 07:02:50;;;;;;;11.10;7.20;;;;;;;15.29;39.90;101095.95;1804694;77;21819;-67
2021/10/26 07:05:34;;;;;;;7.95;6.78;;;;;;;15.31;39.85;101085.09;1768392;77;21462;-66
2021/10/26 07:08:19;;;;;;;9.28;7.17;;;;;;;15.32;39.90;101085.44;1806956;77;21464;-66
2021/10/26 07:10:45;;;;;;;8.30;6.83;;;;;;;15.32;39.86;101085.44;1799450;77;21072;-69
2021/10/26 07:13:13;;;;;;;8.35;6.87;;;;;;;15.33;39.85;101080.41;1804458;77;21352;-67
2021/10/26 07:15:40;;;;;;;7.53;6.72;;;;;;;15.35;39.86;101073.04;1809170;77;23383;-67
2021/10/26 07:18:06;;;;;;;11.43;7.25;;;;;;;15.36;39.82;101078.75;1814072;77;21005;-68
2021/10/26 07:20:33;;;;;;;8.28;6.65;;;;;;;15.38;39.82;101070.05;1815151;77;21032;-67
2021/10/26 07:23:18;;;;;;;8.83;7.03;;;;;;;15.40;39.79;101068.55;1808400;77;21666;-66
2021/10/26 07:26:03;;;;;;;8.83;6.70;;;;;;;15.41;39.78;101067.01;1801143;77;21083;-67
2021/10/26 07:28:30;;;;;;;8.58;7.37;;;;;;;15.43;39.72;101049.45;1806348;77;21204;-66
2021/10/26 07:30:57;;;;;;;9.95;6.72;;;;;;;15.44;39.73;101076.57;1813845;77;21466;-65
2021/10/26 07:33:26;;;;;;;8.68;6.55;;;;;;;15.46;39.70;101060.66;1779331;79;21001;-67
2021/10/26 07:35:53;;;;;;;8.10;6.97;;;;;;;15.50;39.65;101059.83;1784675;78;21498;-65
2021/10/26 07:38:36;;;;;;;8.88;7.35;;;;;;;15.52;39.59;101057.81;1811498;78;21055;-67
2021/10/26 07:41:00;;;;;;;9.03;6.72;;;;;;;15.56;39.56;101046.27;1776956;79;21185;-67
2021/10/26 07:44:13;;;;;;;8.98;6.58;;;;;;;15.62;39.52;101055.78;1808077;79;28041;-63
2021/10/26 07:46:59;;;;;;;8.53;7.47;;;;;;;15.62;39.43;101054.96;1778051;79;21029;-67
2021/10/26 07:49:27;;;;;;;7.67;6.58;;;;;;;15.64;39.32;101049.75;1770518;79;21159;-67
2021/10/26 07:51:54;;;;;;;8.85;6.75;;;;;;;15.66;39.26;101054.44;1770928;79;21001;-66
2021/10/26 07:54:20;;;;;;;8.28;6.80;;;;;;;15.69;39.16;101050.61;1770872;79;21559;-66
2021/10/26 07:56:47;;;;;;;10.25;7.15;;;;;;;15.72;39.14;101039.05;1770737;79;21022;-67
2021/10/26 07:59:14;;;;;;;8.30;6.65;;;;;;;15.76;39.14;101046.28;1789986;79;21548;-66
2021/10/26 08:01:44;;;;;;;9.40;6.92;;;;;;;15.78;39.12;101028.19;1783165;79;21126;-64
2021/10/26 08:04:29;;;;;;;10.18;7.28;;;;;;;15.82;39.12;101028.66;1786800;79;21001;-65
2021/10/26 08:07:01;;;;;;;9.43;6.45;;;;;;;15.85;39.10;101029.67;1785765;79;20949;-65
2021/10/26 08:09:27;;;;;;;9.80;6.33;;;;;;;15.88;39.08;101023.47;1786592;79;21099;-66
2021/10/26 08:11:54;;;;;;;8.60;6.05;;;;;;;15.92;39.10;101020.77;1775310;79;21591;-65
2021/10/26 08:14:20;;;;;;;7.25;6.17;;;;;;;15.97;39.09;101036.84;1780018;79;21603;-66
2021/10/26 08:16:46;;;;;;;7.12;6.37;;;;;;;16.01;39.09;101024.76;1780722;80;21040;-67
2021/10/26 08:19:13;;;;;;;7.62;6.47;;;;;;;16.05;39.09;101034.13;1751530;80;21042;-66
2021/10/26 08:21:40;;;;;;;8.23;6.60;;;;;;;16.10;39.06;101015.69;1775921;79;21052;-67
2021/10/26 08:24:08;;;;;;;9.33;6.70;;;;;;;16.16;39.03;101027.05;1780310;79;21052;-65
2021/10/26 08:26:39;;;;;;;6.67;5.87;;;;;;;16.22;38.98;101018.83;1791217;79;23243;-66
2021/10/26 08:29:11;;;;;;;7.45;5.87;;;;;;;16.28;38.94;101016.78;1771401;79;21064;-66
2021/10/26 08:31:42;;;;;;;7.70;6.50;;;;;;;16.35;38.86;101018.28;1765943;79;21465;-66
2021/10/26 08:34:09;;;;;;;8.23;6.35;;;;;;;16.40;38.83;101019.42;1768343;79;21013;-66
2021/10/26 08:36:34;;;;;;;8.38;6.55;;;;;;;16.46;38.78;101022.74;1773748;79;21014;-66
2021/10/26 08:39:01;;;;;;;7.53;6.25;;;;;;;16.55;38.70;101013.30;1786406;79;21083;-66
2021/10/26 08:41:29;;;;;;;8.28;6.20;;;;;;;16.61;38.67;101025.52;1780792;79;21068;-65
2021/10/26 08:43:57;;;;;;;8.48;6.30;;;;;;;16.68;38.60;101025.12;1782035;79;21056;-64
2021/10/26 08:46:24;;;;;;;8.85;6.25;;;;;;;16.75;38.52;101023.92;1803314;78;21002;-66
2021/10/26 08:48:51;;;;;;;10.40;5.83;;;;;;;16.82;38.44;101018.19;1774068;79;21044;-65
2021/10/26 08:51:40;;;;;;;8.13;6.40;;;;;;;16.90;38.36;101060.24;1816283;78;21741;-65
2021/10/26 08:54:07;;;;;;;6.65;5.42;;;;;;;16.98;38.33;101025.80;1767605;80;21616;-66
2021/10/26 08:56:36;;;;;;;6.83;5.30;;;;;;;17.02;38.38;101019.91;1769979;78;21078;-66
2021/10/26 08:59:18;;;;;;;7.95;6.03;;;;;;;17.12;38.23;101017.50;1800295;78;20989;-65
2021/10/26 09:01:54;;;;;;;6.60;5.42;;;;;;;17.20;38.18;101033.54;1804339;78;21109;-65
2021/10/26 09:04:21;;;;;;;8.98;5.80;;;;;;;17.27;38.21;101027.27;1792379;78;21468;-66
2021/10/26 09:06:52;;;;;;;8.15;5.30;;;;;;;17.36;38.29;101020.47;1796190;78;21086;-66
2021/10/26 09:09:23;;;;;;;8.58;5.80;;;;;;;17.43;38.24;100999.42;1795918;78;21115;-65
2021/10/26 09:18:08;;;;;;;8.13;5.90;;;;;;;17.72;38.63;101003.69;1806576;78;21106;-66
2021/10/26 09:20:38;;;;;;;8.25;5.10;;;;;;;17.82;38.57;101003.72;1794698;78;20998;-66
2021/10/26 09:23:05;;;;;;;7.90;5.30;;;;;;;17.91;38.64;101002.34;1803985;78;21091;-66
2021/10/26 09:25:36;;;;;;;6.42;5.37;;;;;;;17.99;38.83;101006.27;1770302;80;21058;-66
2021/10/26 09:28:15;;;;;;;8.05;5.78;;;;;;;18.07;38.75;100988.16;1769832;80;21073;-66
2021/10/26 09:30:42;;;;;;;6.75;5.60;;;;;;;18.18;38.79;100993.59;1816034;78;21197;-64
2021/10/26 09:33:09;;;;;;;7.15;5.45;;;;;;;18.28;38.82;100983.88;1820401;78;21595;-64
2021/10/26 09:35:36;;;;;;;6.75;5.00;;;;;;;18.37;39.02;100987.28;1809497;78;21535;-64
2021/10/26 09:38:03;;;;;;;8.45;5.65;;;;;;;18.46;38.81;100995.05;1805088;78;21041;-64
2021/10/26 09:40:42;;;;;;;8.28;6.17;;;;;;;18.57;38.85;100984.84;1781413;79;21004;-64
2021/10/26 09:43:11;;;;;;;8.68;5.78;;;;;;;18.66;38.60;100974.28;1796311;78;21139;-64
2021/10/26 09:45:38;;;;;;;6.00;4.97;;;;;;;18.75;38.74;100967.72;1801183;78;21580;-63
2021/10/26 09:48:17;;;;;;;5.87;5.28;;;;;;;18.86;38.62;100962.38;1787359;78;21060;-63
2021/10/26 09:50:42;;;;;;;7.40;5.58;;;;;;;18.96;38.33;100968.27;1799179;78;21089;-65
2021/10/26 09:53:12;;;;;;;9.18;5.70;;;;;;;19.07;38.12;100953.98;1806437;78;21021;-64
2021/10/26 09:55:44;;;;;;;6.33;5.28;;;;;;;19.16;37.79;100963.56;1820590;78;21639;-64
2021/10/26 09:58:15;;;;;;;7.05;5.42;;;;;;;19.25;37.64;100959.19;1818656;78;21557;-64
2021/10/26 10:00:45;;;;;;;8.35;5.25;;;;;;;19.35;37.50;100961.53;1810810;78;20998;-65
2021/10/26 10:03:23;;;;;;;6.85;4.90;;;;;;;19.46;37.41;100950.73;1790523;78;21061;-64
2021/10/26 10:06:10;;;;;;;5.50;4.47;;;;;;;19.56;37.33;100946.34;1808861;78;20997;-66
2021/10/26 10:08:38;;;;;;;7.30;5.77;;;;;;;19.65;37.24;100940.59;1806732;78;22588;-66
2021/10/26 10:11:12;;;;;;;6.33;5.62;;;;;;;19.75;37.12;100936.22;1767064;79;21052;-65
2021/10/26 10:13:48;;;;;;;5.70;5.15;;;;;;;19.86;37.14;100938.02;1795914;79;21104;-64
2021/10/26 10:16:18;;;;;;;5.65;4.75;;;;;;;19.94;37.04;100925.22;1788825;79;21571;-65
2021/10/26 10:18:45;;;;;;;5.70;5.10;;;;;;;20.04;36.98;100911.35;1792056;79;21051;-65
2021/10/26 10:21:17;;;;;;;6.20;5.60;;;;;;;20.15;36.89;100909.95;1782707;79;21211;-64
2021/10/26 10:23:45;;;;;;;5.42;4.75;;;;;;;20.25;36.81;100912.26;1772000;79;21025;-64
2021/10/26 10:26:16;;;;;;;5.80;4.90;;;;;;;20.35;36.73;100901.90;1787975;79;21084;-65
2021/10/26 10:28:48;;;;;;;7.83;5.67;;;;;;;20.45;36.66;100899.62;1786510;79;21000;-65
2021/10/26 10:31:16;;;;;;;5.45;4.40;;;;;;;20.55;36.61;100907.32;1796989;79;21044;-66
2021/10/26 10:33:44;;;;;;;5.95;4.47;;;;;;;20.64;36.57;100892.62;1781735;79;21930;-64
2021/10/26 10:36:11;;;;;;;7.65;4.87;;;;;;;20.74;36.49;100888.16;1789830;79;21000;-64
2021/10/26 10:38:38;;;;;;;5.47;4.78;;;;;;;20.84;36.44;100899.38;1774990;79;21001;-64
2021/10/26 10:41:34;;;;;;;7.12;5.00;;;;;;;20.94;36.33;100878.73;1783845;79;21006;-64
2021/10/26 10:44:08;;;;;;;6.22;5.10;;;;;;;21.05;36.25;100881.30;1793021;78;21572;-64
2021/10/26 10:46:51;;;;;;;5.72;4.92;;;;;;;21.15;36.17;100867.69;1791851;78;21571;-65
2021/10/26 10:49:27;;;;;;;6.33;4.85;;;;;;;21.26;36.10;100875.65;1804645;78;21096;-65
2021/10/26 10:52:01;;;;;;;4.92;4.42;;;;;;;21.35;36.02;100862.23;1779005;79;21485;-70
2021/10/26 10:54:48;;;;;;;5.20;4.62;;;;;;;21.47;35.98;100867.02;1801991;78;21508;-70
2021/10/26 10:57:30;;;;;;;5.62;4.67;;;;;;;21.58;35.87;100865.01;1803210;78;21022;-65
2021/10/26 10:59:59;;;;;;;4.87;4.33;;;;;;;21.70;35.81;100862.46;1815149;78;22189;-67
2021/10/26 11:02:36;;;;;;;5.53;4.78;;;;;;;21.80;35.73;100858.23;1793876;78;21005;-63
2021/10/26 11:05:08;;;;;;;7.20;4.45;;;;;;;21.90;35.67;100854.25;1782266;80;21310;-64
2021/10/26 11:07:47;;;;;;;5.28;4.47;;;;;;;22.01;35.66;100849.52;1765650;80;21049;-65
2021/10/26 11:10:14;;;;;;;5.08;4.40;;;;;;;22.11;35.54;100873.39;1796242;78;22197;-64
2021/10/26 11:12:43;;;;;;;5.67;4.53;;;;;;;22.21;35.51;100853.97;1789109;80;21550;-64
2021/10/26 11:15:13;;;;;;;4.72;4.15;;;;;;;22.30;35.42;100845.41;1785442;80;21520;-64
2021/10/26 11:17:49;;;;;;;4.92;4.30;;;;;;;22.41;35.31;100857.42;1821620;78;21038;-65
2021/10/26 11:20:39;;;;;;;5.67;4.08;;;;;;;22.52;35.19;100846.38;1789285;80;21428;-65
2021/10/26 11:23:09;;;;;;;6.20;4.30;;;;;;;22.62;35.08;100844.54;1765040;80;21544;-65
2021/10/26 11:25:41;;;;;;;4.33;3.90;;;;;;;22.70;34.97;100841.05;1807058;78;22068;-65
2021/10/26 11:28:17;;;;;;;6.95;4.05;;;;;;;22.82;34.84;100840.32;1818409;78;21109;-64
2021/10/26 11:30:49;;;;;;;4.95;4.00;;;;;;;22.92;34.74;100826.55;1786169;78;21420;-64
2021/10/26 11:33:29;;;;;;;5.10;4.28;;;;;;;23.02;34.67;100823.86;1811720;78;21449;-64
2021/10/26 11:36:06;;;;;;;5.28;4.17;;;;;;;23.12;34.58;100817.42;1790364;80;21033;-65
2021/10/26 11:38:44;;;;;;;4.30;3.90;;;;;;;23.22;34.58;100817.75;1782402;80;21124;-63
2021/10/26 11:41:14;;;;;;;4.78;3.98;;;;;;;23.31;34.52;100818.26;1786398;79;21044;-68
2021/10/26 11:43:48;;;;;;;5.03;4.53;;;;;;;23.42;34.45;100803.95;1793606;78;21053;-67